sensor_id;sensor_type;location;lat;lon;timestamp;P1;durP1;ratioP1;P2;durP2;ratioP2
78871;SDS011;68247;43.514;1.502;2023-04-01T00:00:33;22.23;;;4.03;;
78871;SDS011;68247;43.514;1.502;2023-04-01T00:02:59;21.17;;;3.05;;
78871;SDS011;68247;43.514;1.502;2023-04-01T00:05:25;19.40;;;3.00;;
78871;SDS011;68247;43.514;1.502;2023-04-01T00:07:51;20.33;;;3.13;;
78871;SDS011;68247;43.514;1.502;2023-04-01T00:10:17;22.00;;;3.10;;
78871;SDS011;68247;43.514;1.502;2023-04-01T00:12:42;18.77;;;3.15;;
78871;SDS011;68247;43.514;1.502;2023-04-01T00:15:09;17.83;;;3.83;;
78871;SDS011;68247;43.514;1.502;2023-04-01T00:17:36;21.43;;;3.30;;
78871;SDS011;68247;43.514;1.502;2023-04-01T00:20:02;18.02;;;3.30;;
78871;SDS011;68247;43.514;1.502;2023-04-01T00:22:30;15.95;;;3.38;;
78871;SDS011;68247;43.514;1.502;2023-04-01T00:24:55;18.87;;;3.37;;
78871;SDS011;68247;43.514;1.502;2023-04-01T00:27:21;25.47;;;3.40;;
78871;SDS011;68247;43.514;1.502;2023-04-01T00:29:46;17.57;;;3.37;;
78871;SDS011;68247;43.514;1.502;2023-04-01T00:32:12;24.63;;;3.58;;
78871;SDS011;68247;43.514;1.502;2023-04-01T00:34:38;23.75;;;3.33;;
78871;SDS011;68247;43.514;1.502;2023-04-01T00:37:05;17.40;;;3.10;;
78871;SDS011;68247;43.514;1.502;2023-04-01T00:39:31;18.60;;;2.83;;
78871;SDS011;68247;43.514;1.502;2023-04-01T00:41:58;21.90;;;4.07;;
78871;SDS011;68247;43.514;1.502;2023-04-01T00:44:25;17.00;;;3.88;;
78871;SDS011;68247;43.514;1.502;2023-04-01T00:46:56;22.02;;;3.78;;
78871;SDS011;68247;43.514;1.502;2023-04-01T00:49:22;25.13;;;3.85;;
78871;SDS011;68247;43.514;1.502;2023-04-01T00:51:51;20.50;;;2.93;;
78871;SDS011;68247;43.514;1.502;2023-04-01T00:54:19;20.08;;;3.63;;
78871;SDS011;68247;43.514;1.502;2023-04-01T00:57:29;17.38;;;2.80;;
78871;SDS011;68247;43.514;1.502;2023-04-01T00:59:54;17.05;;;3.45;;
78871;SDS011;68247;43.514;1.502;2023-04-01T01:02:19;21.52;;;3.55;;
78871;SDS011;68247;43.514;1.502;2023-04-01T01:04:45;19.63;;;3.73;;
78871;SDS011;68247;43.514;1.502;2023-04-01T01:10:34;30.67;;;3.90;;
78871;SDS011;68247;43.514;1.502;2023-04-01T01:15:40;20.47;;;2.50;;
78871;SDS011;68247;43.514;1.502;2023-04-01T01:23:51;17.52;;;3.05;;
78871;SDS011;68247;43.514;1.502;2023-04-01T01:26:44;24.35;;;3.28;;
78871;SDS011;68247;43.514;1.502;2023-04-01T01:37:50;25.73;;;4.10;;
78871;SDS011;68247;43.514;1.502;2023-04-01T01:40:19;24.48;;;3.55;;
78871;SDS011;68247;43.514;1.502;2023-04-01T01:42:47;24.47;;;3.20;;
78871;SDS011;68247;43.514;1.502;2023-04-01T01:45:15;18.50;;;3.45;;
78871;SDS011;68247;43.514;1.502;2023-04-01T01:47:43;22.40;;;3.10;;
78871;SDS011;68247;43.514;1.502;2023-04-01T01:50:09;21.52;;;3.53;;
78871;SDS011;68247;43.514;1.502;2023-04-01T01:52:34;16.77;;;3.03;;
78871;SDS011;68247;43.514;1.502;2023-04-01T01:55:00;15.25;;;2.92;;
78871;SDS011;68247;43.514;1.502;2023-04-01T01:57:28;16.00;;;3.30;;
78871;SDS011;68247;43.514;1.502;2023-04-01T01:59:56;16.95;;;2.88;;
78871;SDS011;68247;43.514;1.502;2023-04-01T02:02:25;16.63;;;3.03;;
78871;SDS011;68247;43.514;1.502;2023-04-01T02:04:52;15.67;;;2.73;;
78871;SDS011;68247;43.514;1.502;2023-04-01T02:07:19;17.63;;;3.20;;
78871;SDS011;68247;43.514;1.502;2023-04-01T02:09:47;24.75;;;3.55;;
78871;SDS011;68247;43.514;1.502;2023-04-01T02:12:13;17.63;;;3.28;;
78871;SDS011;68247;43.514;1.502;2023-04-01T02:14:44;21.48;;;3.20;;
78871;SDS011;68247;43.514;1.502;2023-04-01T02:17:17;22.93;;;3.70;;
78871;SDS011;68247;43.514;1.502;2023-04-01T02:19:54;18.65;;;2.97;;
78871;SDS011;68247;43.514;1.502;2023-04-01T02:22:23;21.00;;;3.80;;
78871;SDS011;68247;43.514;1.502;2023-04-01T02:25:04;20.98;;;3.50;;
78871;SDS011;68247;43.514;1.502;2023-04-01T02:27:31;20.27;;;3.20;;
78871;SDS011;68247;43.514;1.502;2023-04-01T02:29:57;19.20;;;2.77;;
78871;SDS011;68247;43.514;1.502;2023-04-01T02:32:23;16.92;;;3.25;;
78871;SDS011;68247;43.514;1.502;2023-04-01T02:34:49;19.50;;;2.83;;
78871;SDS011;68247;43.514;1.502;2023-04-01T02:37:16;17.48;;;3.10;;
78871;SDS011;68247;43.514;1.502;2023-04-01T02:39:42;22.35;;;3.35;;
78871;SDS011;68247;43.514;1.502;2023-04-01T02:42:08;20.50;;;3.00;;
78871;SDS011;68247;43.514;1.502;2023-04-01T02:44:34;18.10;;;3.00;;
78871;SDS011;68247;43.514;1.502;2023-04-01T02:46:59;18.92;;;3.20;;
78871;SDS011;68247;43.514;1.502;2023-04-01T02:49:25;21.17;;;3.30;;
78871;SDS011;68247;43.514;1.502;2023-04-01T02:51:50;16.23;;;3.20;;
78871;SDS011;68247;43.514;1.502;2023-04-01T02:54:17;20.20;;;3.38;;
78871;SDS011;68247;43.514;1.502;2023-04-01T02:56:42;20.83;;;2.97;;
78871;SDS011;68247;43.514;1.502;2023-04-01T02:59:08;20.50;;;2.97;;
78871;SDS011;68247;43.514;1.502;2023-04-01T03:01:33;17.20;;;3.40;;
78871;SDS011;68247;43.514;1.502;2023-04-01T03:03:59;20.63;;;2.92;;
78871;SDS011;68247;43.514;1.502;2023-04-01T03:06:25;20.70;;;3.13;;
78871;SDS011;68247;43.514;1.502;2023-04-01T03:08:50;21.60;;;3.50;;
78871;SDS011;68247;43.514;1.502;2023-04-01T03:11:15;22.90;;;3.72;;
78871;SDS011;68247;43.514;1.502;2023-04-01T03:13:41;17.87;;;2.63;;
78871;SDS011;68247;43.514;1.502;2023-04-01T03:16:06;22.67;;;3.27;;
78871;SDS011;68247;43.514;1.502;2023-04-01T03:18:32;19.75;;;3.15;;
78871;SDS011;68247;43.514;1.502;2023-04-01T03:21:11;18.93;;;3.47;;
78871;SDS011;68247;43.514;1.502;2023-04-01T03:23:55;18.33;;;3.85;;
78871;SDS011;68247;43.514;1.502;2023-04-01T03:26:20;21.43;;;3.93;;
78871;SDS011;68247;43.514;1.502;2023-04-01T03:28:46;25.20;;;4.28;;
78871;SDS011;68247;43.514;1.502;2023-04-01T03:31:12;23.42;;;3.67;;
78871;SDS011;68247;43.514;1.502;2023-04-01T03:33:38;22.47;;;2.60;;
78871;SDS011;68247;43.514;1.502;2023-04-01T03:36:04;24.27;;;3.67;;
78871;SDS011;68247;43.514;1.502;2023-04-01T03:38:32;26.45;;;4.13;;
78871;SDS011;68247;43.514;1.502;2023-04-01T03:40:58;20.38;;;3.50;;
78871;SDS011;68247;43.514;1.502;2023-04-01T03:43:24;27.43;;;3.67;;
78871;SDS011;68247;43.514;1.502;2023-04-01T03:45:50;23.48;;;4.40;;
78871;SDS011;68247;43.514;1.502;2023-04-01T03:48:16;17.40;;;3.03;;
78871;SDS011;68247;43.514;1.502;2023-04-01T03:50:42;22.30;;;3.37;;
78871;SDS011;68247;43.514;1.502;2023-04-01T03:53:08;27.77;;;3.45;;
78871;SDS011;68247;43.514;1.502;2023-04-01T03:55:36;23.92;;;3.35;;
78871;SDS011;68247;43.514;1.502;2023-04-01T03:58:02;21.75;;;3.92;;
78871;SDS011;68247;43.514;1.502;2023-04-01T04:00:28;16.33;;;3.03;;
78871;SDS011;68247;43.514;1.502;2023-04-01T04:02:54;20.35;;;3.08;;
78871;SDS011;68247;43.514;1.502;2023-04-01T04:05:21;22.73;;;4.00;;
78871;SDS011;68247;43.514;1.502;2023-04-01T04:07:50;22.60;;;3.72;;
78871;SDS011;68247;43.514;1.502;2023-04-01T04:10:16;20.08;;;3.28;;
78871;SDS011;68247;43.514;1.502;2023-04-01T04:12:42;21.13;;;3.33;;
78871;SDS011;68247;43.514;1.502;2023-04-01T04:15:08;24.93;;;3.70;;
78871;SDS011;68247;43.514;1.502;2023-04-01T04:17:34;24.60;;;3.67;;
78871;SDS011;68247;43.514;1.502;2023-04-01T04:20:00;23.33;;;3.50;;
78871;SDS011;68247;43.514;1.502;2023-04-01T04:22:26;21.77;;;3.33;;
78871;SDS011;68247;43.514;1.502;2023-04-01T04:24:52;20.85;;;3.33;;
78871;SDS011;68247;43.514;1.502;2023-04-01T04:27:17;21.33;;;2.90;;
78871;SDS011;68247;43.514;1.502;2023-04-01T04:29:43;20.80;;;3.43;;
78871;SDS011;68247;43.514;1.502;2023-04-01T04:32:08;15.90;;;3.38;;
78871;SDS011;68247;43.514;1.502;2023-04-01T04:34:34;24.07;;;3.33;;
78871;SDS011;68247;43.514;1.502;2023-04-01T04:36:59;20.33;;;3.20;;
78871;SDS011;68247;43.514;1.502;2023-04-01T04:39:25;18.97;;;3.17;;
78871;SDS011;68247;43.514;1.502;2023-04-01T04:41:50;18.73;;;2.83;;
78871;SDS011;68247;43.514;1.502;2023-04-01T04:44:16;22.17;;;3.30;;
78871;SDS011;68247;43.514;1.502;2023-04-01T04:46:42;18.93;;;2.37;;
78871;SDS011;68247;43.514;1.502;2023-04-01T04:49:07;15.73;;;2.80;;
78871;SDS011;68247;43.514;1.502;2023-04-01T04:51:33;19.33;;;2.78;;
78871;SDS011;68247;43.514;1.502;2023-04-01T04:54:02;18.47;;;3.53;;
78871;SDS011;68247;43.514;1.502;2023-04-01T04:56:28;22.25;;;3.60;;
78871;SDS011;68247;43.514;1.502;2023-04-01T04:58:55;19.83;;;3.30;;
78871;SDS011;68247;43.514;1.502;2023-04-01T05:01:21;17.80;;;3.40;;
78871;SDS011;68247;43.514;1.502;2023-04-01T05:03:47;24.45;;;3.85;;
78871;SDS011;68247;43.514;1.502;2023-04-01T05:06:13;23.87;;;3.47;;
78871;SDS011;68247;43.514;1.502;2023-04-01T05:08:40;17.23;;;3.00;;
78871;SDS011;68247;43.514;1.502;2023-04-01T05:11:07;20.98;;;3.20;;
78871;SDS011;68247;43.514;1.502;2023-04-01T05:13:35;22.98;;;3.60;;
78871;SDS011;68247;43.514;1.502;2023-04-01T05:16:01;23.37;;;4.10;;
78871;SDS011;68247;43.514;1.502;2023-04-01T05:18:27;18.65;;;3.08;;
78871;SDS011;68247;43.514;1.502;2023-04-01T05:20:53;21.87;;;3.07;;
78871;SDS011;68247;43.514;1.502;2023-04-01T05:23:19;14.80;;;3.42;;
78871;SDS011;68247;43.514;1.502;2023-04-01T05:25:46;23.73;;;3.25;;
78871;SDS011;68247;43.514;1.502;2023-04-01T05:28:17;19.52;;;2.85;;
78871;SDS011;68247;43.514;1.502;2023-04-01T05:30:44;20.43;;;3.10;;
78871;SDS011;68247;43.514;1.502;2023-04-01T05:33:10;21.73;;;3.70;;
78871;SDS011;68247;43.514;1.502;2023-04-01T05:35:36;18.58;;;2.60;;
78871;SDS011;68247;43.514;1.502;2023-04-01T05:38:02;22.42;;;3.00;;
78871;SDS011;68247;43.514;1.502;2023-04-01T05:40:28;23.83;;;3.97;;
78871;SDS011;68247;43.514;1.502;2023-04-01T05:42:54;22.08;;;3.05;;
78871;SDS011;68247;43.514;1.502;2023-04-01T05:45:20;20.13;;;3.27;;
78871;SDS011;68247;43.514;1.502;2023-04-01T05:47:45;17.80;;;3.10;;
78871;SDS011;68247;43.514;1.502;2023-04-01T05:50:11;22.83;;;3.33;;
78871;SDS011;68247;43.514;1.502;2023-04-01T05:52:37;24.53;;;3.97;;
78871;SDS011;68247;43.514;1.502;2023-04-01T05:55:02;17.48;;;3.03;;
78871;SDS011;68247;43.514;1.502;2023-04-01T05:57:28;20.65;;;3.70;;
78871;SDS011;68247;43.514;1.502;2023-04-01T05:59:54;19.23;;;3.03;;
78871;SDS011;68247;43.514;1.502;2023-04-01T06:02:20;17.38;;;3.63;;
78871;SDS011;68247;43.514;1.502;2023-04-01T06:04:45;20.97;;;3.43;;
78871;SDS011;68247;43.514;1.502;2023-04-01T06:07:14;20.53;;;3.10;;
78871;SDS011;68247;43.514;1.502;2023-04-01T06:09:41;28.23;;;3.03;;
78871;SDS011;68247;43.514;1.502;2023-04-01T06:30:40;13.95;;;2.67;;
78871;SDS011;68247;43.514;1.502;2023-04-01T06:46:45;19.63;;;3.30;;
78871;SDS011;68247;43.514;1.502;2023-04-01T06:54:51;23.85;;;3.65;;
78871;SDS011;68247;43.514;1.502;2023-04-01T06:57:25;19.92;;;2.78;;
78871;SDS011;68247;43.514;1.502;2023-04-01T06:59:54;19.17;;;3.47;;
78871;SDS011;68247;43.514;1.502;2023-04-01T07:02:24;17.90;;;3.42;;
78871;SDS011;68247;43.514;1.502;2023-04-01T07:04:57;21.93;;;3.43;;
78871;SDS011;68247;43.514;1.502;2023-04-01T07:07:31;11.77;;;2.75;;
78871;SDS011;68247;43.514;1.502;2023-04-01T07:10:02;14.85;;;2.38;;
78871;SDS011;68247;43.514;1.502;2023-04-01T07:14:56;11.20;;;1.90;;
78871;SDS011;68247;43.514;1.502;2023-04-01T07:17:33;19.85;;;3.03;;
78871;SDS011;68247;43.514;1.502;2023-04-01T07:22:44;18.33;;;3.00;;
78871;SDS011;68247;43.514;1.502;2023-04-01T07:25:15;20.15;;;3.20;;
78871;SDS011;68247;43.514;1.502;2023-04-01T07:28:04;17.17;;;3.22;;
78871;SDS011;68247;43.514;1.502;2023-04-01T07:36:18;22.60;;;3.00;;
78871;SDS011;68247;43.514;1.502;2023-04-01T07:42:14;15.38;;;3.20;;
78871;SDS011;68247;43.514;1.502;2023-04-01T07:44:52;13.88;;;2.90;;
78871;SDS011;68247;43.514;1.502;2023-04-01T07:50:03;23.40;;;3.57;;
78871;SDS011;68247;43.514;1.502;2023-04-01T07:53:02;20.65;;;3.47;;
78871;SDS011;68247;43.514;1.502;2023-04-01T08:01:23;15.43;;;2.67;;
78871;SDS011;68247;43.514;1.502;2023-04-01T08:07:23;16.08;;;3.00;;
78871;SDS011;68247;43.514;1.502;2023-04-01T08:20:59;20.98;;;2.72;;
78871;SDS011;68247;43.514;1.502;2023-04-01T08:28:32;16.20;;;3.00;;
78871;SDS011;68247;43.514;1.502;2023-04-01T08:31:05;20.07;;;3.77;;
78871;SDS011;68247;43.514;1.502;2023-04-01T08:33:33;18.55;;;4.28;;
78871;SDS011;68247;43.514;1.502;2023-04-01T08:36:02;16.63;;;2.95;;
78871;SDS011;68247;43.514;1.502;2023-04-01T09:00:29;15.48;;;2.85;;
78871;SDS011;68247;43.514;1.502;2023-04-01T09:06:20;13.80;;;2.25;;
78871;SDS011;68247;43.514;1.502;2023-04-01T09:14:37;9.15;;;1.60;;
78871;SDS011;68247;43.514;1.502;2023-04-01T09:23:02;11.13;;;2.13;;
78871;SDS011;68247;43.514;1.502;2023-04-01T10:13:22;7.60;;;1.95;;
78871;SDS011;68247;43.514;1.502;2023-04-01T10:16:03;7.38;;;1.35;;
78871;SDS011;68247;43.514;1.502;2023-04-01T10:24:26;8.63;;;2.40;;
78871;SDS011;68247;43.514;1.502;2023-04-01T10:27:00;9.15;;;2.33;;
78871;SDS011;68247;43.514;1.502;2023-04-01T10:48:12;9.15;;;2.30;;
78871;SDS011;68247;43.514;1.502;2023-04-01T10:53:37;8.07;;;1.97;;
78871;SDS011;68247;43.514;1.502;2023-04-01T10:56:14;9.82;;;2.13;;
78871;SDS011;68247;43.514;1.502;2023-04-01T11:21:21;9.20;;;2.05;;
78871;SDS011;68247;43.514;1.502;2023-04-01T11:24:13;5.10;;;1.35;;
78871;SDS011;68247;43.514;1.502;2023-04-01T11:26:57;6.27;;;1.30;;
78871;SDS011;68247;43.514;1.502;2023-04-01T11:38:26;10.77;;;1.80;;
78871;SDS011;68247;43.514;1.502;2023-04-01T11:49:45;7.68;;;1.70;;
78871;SDS011;68247;43.514;1.502;2023-04-01T12:05:50;5.05;;;1.63;;
78871;SDS011;68247;43.514;1.502;2023-04-01T12:16:22;4.60;;;1.30;;
78871;SDS011;68247;43.514;1.502;2023-04-01T12:19:10;4.45;;;1.27;;
78871;SDS011;68247;43.514;1.502;2023-04-01T12:22:34;4.18;;;0.90;;
78871;SDS011;68247;43.514;1.502;2023-04-01T12:25:05;3.95;;;1.13;;
78871;SDS011;68247;43.514;1.502;2023-04-01T12:28:01;6.30;;;1.30;;
78871;SDS011;68247;43.514;1.502;2023-04-01T12:39:20;4.90;;;0.80;;
78871;SDS011;68247;43.514;1.502;2023-04-01T13:17:33;7.95;;;1.85;;
78871;SDS011;68247;43.514;1.502;2023-04-01T13:28:29;8.15;;;1.60;;
78871;SDS011;68247;43.514;1.502;2023-04-01T13:31:01;12.05;;;1.60;;
78871;SDS011;68247;43.514;1.502;2023-04-01T13:33:46;6.53;;;0.95;;
78871;SDS011;68247;43.514;1.502;2023-04-01T13:36:36;4.50;;;1.30;;
78871;SDS011;68247;43.514;1.502;2023-04-01T13:44:38;7.97;;;1.15;;
78871;SDS011;68247;43.514;1.502;2023-04-01T13:53:24;8.13;;;1.17;;
78871;SDS011;68247;43.514;1.502;2023-04-01T13:56:15;6.07;;;1.45;;
78871;SDS011;68247;43.514;1.502;2023-04-01T13:58:53;6.88;;;1.30;;
78871;SDS011;68247;43.514;1.502;2023-04-01T14:12:47;7.88;;;1.73;;
78871;SDS011;68247;43.514;1.502;2023-04-01T14:18:30;8.20;;;1.50;;
78871;SDS011;68247;43.514;1.502;2023-04-01T14:35:31;8.00;;;1.67;;
78871;SDS011;68247;43.514;1.502;2023-04-01T14:52:43;10.05;;;1.73;;
78871;SDS011;68247;43.514;1.502;2023-04-01T14:54:51;10.77;;;1.85;;
78871;SDS011;68247;43.514;1.502;2023-04-01T14:57:25;7.45;;;1.65;;
78871;SDS011;68247;43.514;1.502;2023-04-01T15:21:43;6.65;;;1.70;;
78871;SDS011;68247;43.514;1.502;2023-04-01T15:40:24;7.17;;;1.90;;
78871;SDS011;68247;43.514;1.502;2023-04-01T15:45:34;7.10;;;1.50;;
78871;SDS011;68247;43.514;1.502;2023-04-01T15:48:18;12.70;;;1.42;;
78871;SDS011;68247;43.514;1.502;2023-04-01T15:56:07;7.95;;;2.00;;
78871;SDS011;68247;43.514;1.502;2023-04-01T15:58:59;8.37;;;2.13;;
78871;SDS011;68247;43.514;1.502;2023-04-01T16:10:29;7.32;;;1.83;;
78871;SDS011;68247;43.514;1.502;2023-04-01T16:21:37;7.45;;;1.60;;
78871;SDS011;68247;43.514;1.502;2023-04-01T16:29:49;5.75;;;1.23;;
78871;SDS011;68247;43.514;1.502;2023-04-01T16:33:01;7.47;;;1.60;;
78871;SDS011;68247;43.514;1.502;2023-04-01T16:38:22;6.00;;;1.73;;
78871;SDS011;68247;43.514;1.502;2023-04-01T16:40:47;4.03;;;1.27;;
78871;SDS011;68247;43.514;1.502;2023-04-01T16:51:52;4.70;;;1.50;;
78871;SDS011;68247;43.514;1.502;2023-04-01T16:54:39;5.97;;;1.23;;
78871;SDS011;68247;43.514;1.502;2023-04-01T16:59:35;5.87;;;1.33;;
78871;SDS011;68247;43.514;1.502;2023-04-01T17:10:36;5.43;;;1.87;;
78871;SDS011;68247;43.514;1.502;2023-04-01T17:18:58;6.25;;;1.42;;
78871;SDS011;68247;43.514;1.502;2023-04-01T17:21:47;5.43;;;1.50;;
78871;SDS011;68247;43.514;1.502;2023-04-01T17:24:29;5.20;;;1.40;;
78871;SDS011;68247;43.514;1.502;2023-04-01T17:27:29;5.15;;;1.35;;
78871;SDS011;68247;43.514;1.502;2023-04-01T17:30:12;4.53;;;1.50;;
78871;SDS011;68247;43.514;1.502;2023-04-01T17:33:03;6.07;;;1.05;;
78871;SDS011;68247;43.514;1.502;2023-04-01T17:41:29;3.30;;;0.88;;
78871;SDS011;68247;43.514;1.502;2023-04-01T17:58:33;6.45;;;1.60;;
78871;SDS011;68247;43.514;1.502;2023-04-01T18:01:21;6.28;;;1.13;;
78871;SDS011;68247;43.514;1.502;2023-04-01T18:04:07;4.40;;;1.00;;
78871;SDS011;68247;43.514;1.502;2023-04-01T18:23:11;8.38;;;1.30;;
78871;SDS011;68247;43.514;1.502;2023-04-01T18:25:41;9.70;;;1.70;;
78871;SDS011;68247;43.514;1.502;2023-04-01T18:28:18;7.65;;;1.70;;
78871;SDS011;68247;43.514;1.502;2023-04-01T18:39:37;8.38;;;2.40;;
78871;SDS011;68247;43.514;1.502;2023-04-01T18:44:53;10.75;;;2.83;;
78871;SDS011;68247;43.514;1.502;2023-04-01T18:50:29;9.35;;;2.60;;
78871;SDS011;68247;43.514;1.502;2023-04-01T18:56:06;12.52;;;2.35;;
78871;SDS011;68247;43.514;1.502;2023-04-01T19:04:37;6.88;;;1.88;;
78871;SDS011;68247;43.514;1.502;2023-04-01T19:27:01;7.25;;;1.75;;
78871;SDS011;68247;43.514;1.502;2023-04-01T19:29:12;11.43;;;2.17;;
78871;SDS011;68247;43.514;1.502;2023-04-01T19:34:26;6.47;;;1.70;;
78871;SDS011;68247;43.514;1.502;2023-04-01T19:37:05;7.60;;;1.95;;
78871;SDS011;68247;43.514;1.502;2023-04-01T19:52:48;7.43;;;1.77;;
78871;SDS011;68247;43.514;1.502;2023-04-01T20:00:51;6.25;;;1.80;;
78871;SDS011;68247;43.514;1.502;2023-04-01T20:09:44;5.97;;;2.10;;
78871;SDS011;68247;43.514;1.502;2023-04-01T20:17:58;7.30;;;2.22;;
78871;SDS011;68247;43.514;1.502;2023-04-01T20:20:27;6.32;;;1.40;;
78871;SDS011;68247;43.514;1.502;2023-04-01T20:25:48;9.88;;;1.77;;
78871;SDS011;68247;43.514;1.502;2023-04-01T20:36:30;8.38;;;2.10;;
78871;SDS011;68247;43.514;1.502;2023-04-01T20:42:26;8.77;;;1.80;;
78871;SDS011;68247;43.514;1.502;2023-04-01T20:47:51;8.88;;;1.52;;
78871;SDS011;68247;43.514;1.502;2023-04-01T20:53:04;11.97;;;2.20;;
78871;SDS011;68247;43.514;1.502;2023-04-01T20:58:28;11.30;;;1.95;;
78871;SDS011;68247;43.514;1.502;2023-04-01T21:04:02;10.02;;;1.70;;
78871;SDS011;68247;43.514;1.502;2023-04-01T21:09:46;12.00;;;1.85;;
78871;SDS011;68247;43.514;1.502;2023-04-01T21:12:34;8.55;;;1.75;;
78871;SDS011;68247;43.514;1.502;2023-04-01T21:20:39;7.03;;;2.03;;
78871;SDS011;68247;43.514;1.502;2023-04-01T21:56:46;12.52;;;2.10;;
78871;SDS011;68247;43.514;1.502;2023-04-01T22:00:08;11.70;;;2.88;;
78871;SDS011;68247;43.514;1.502;2023-04-01T22:11:34;9.13;;;1.67;;
78871;SDS011;68247;43.514;1.502;2023-04-01T22:13:35;16.00;;;2.15;;
78871;SDS011;68247;43.514;1.502;2023-04-01T22:24:40;9.07;;;2.10;;
78871;SDS011;68247;43.514;1.502;2023-04-01T22:27:57;7.78;;;2.00;;
78871;SDS011;68247;43.514;1.502;2023-04-01T22:30:19;12.80;;;1.87;;
78871;SDS011;68247;43.514;1.502;2023-04-01T22:32:52;12.32;;;2.30;;
78871;SDS011;68247;43.514;1.502;2023-04-01T22:38:33;9.95;;;1.42;;
78871;SDS011;68247;43.514;1.502;2023-04-01T22:41:23;13.63;;;1.80;;
78871;SDS011;68247;43.514;1.502;2023-04-01T22:43:57;8.70;;;2.30;;
78871;SDS011;68247;43.514;1.502;2023-04-01T22:49:25;9.57;;;2.08;;
78871;SDS011;68247;43.514;1.502;2023-04-01T22:51:55;12.18;;;2.10;;
78871;SDS011;68247;43.514;1.502;2023-04-01T22:54:31;9.48;;;2.10;;
78871;SDS011;68247;43.514;1.502;2023-04-01T22:57:04;9.47;;;1.80;;
78871;SDS011;68247;43.514;1.502;2023-04-01T23:02:28;14.27;;;2.42;;
78871;SDS011;68247;43.514;1.502;2023-04-01T23:04:58;10.13;;;2.00;;
78871;SDS011;68247;43.514;1.502;2023-04-01T23:07:32;10.38;;;2.05;;
78871;SDS011;68247;43.514;1.502;2023-04-01T23:10:02;9.57;;;2.23;;
78871;SDS011;68247;43.514;1.502;2023-04-01T23:12:30;13.15;;;2.20;;
78871;SDS011;68247;43.514;1.502;2023-04-01T23:15:01;10.60;;;1.77;;
78871;SDS011;68247;43.514;1.502;2023-04-01T23:20:53;13.45;;;2.25;;
78871;SDS011;68247;43.514;1.502;2023-04-01T23:26:29;11.75;;;2.72;;
78871;SDS011;68247;43.514;1.502;2023-04-01T23:29:01;14.52;;;2.50;;
78871;SDS011;68247;43.514;1.502;2023-04-01T23:31:29;14.90;;;2.45;;
78871;SDS011;68247;43.514;1.502;2023-04-01T23:34:00;20.67;;;2.45;;
78871;SDS011;68247;43.514;1.502;2023-04-01T23:36:28;12.67;;;2.77;;
78871;SDS011;68247;43.514;1.502;2023-04-01T23:38:54;14.80;;;2.60;;
78871;SDS011;68247;43.514;1.502;2023-04-01T23:41:28;12.20;;;2.03;;
78871;SDS011;68247;43.514;1.502;2023-04-01T23:44:05;13.17;;;2.57;;
78871;SDS011;68247;43.514;1.502;2023-04-01T23:46:34;10.55;;;1.77;;
78871;SDS011;68247;43.514;1.502;2023-04-01T23:49:00;9.23;;;1.67;;
78871;SDS011;68247;43.514;1.502;2023-04-01T23:51:28;10.15;;;1.67;;
78871;SDS011;68247;43.514;1.502;2023-04-01T23:54:10;9.70;;;2.17;;
78871;SDS011;68247;43.514;1.502;2023-04-01T23:56:48;7.20;;;2.13;;
78871;SDS011;68247;43.514;1.502;2023-04-01T23:59:17;12.43;;;2.25;;
